createdAt,value
2022-10-24T00:01:32.518Z,14.30
2022-10-24T00:05:34.392Z,14.20
2022-10-24T00:09:36.521Z,14.20
2022-10-24T00:13:38.796Z,14.10
2022-10-24T00:17:40.651Z,14.00
2022-10-24T00:21:42.594Z,14.00
2022-10-24T00:25:44.465Z,14.00
2022-10-24T00:29:46.351Z,13.90
2022-10-24T00:33:48.324Z,14.00
2022-10-24T00:37:50.166Z,13.90
2022-10-24T00:41:54.448Z,13.90
2022-10-24T00:46:01.200Z,13.90
2022-10-24T00:50:12.993Z,13.90
2022-10-24T00:54:16.291Z,13.90
2022-10-24T00:58:18.460Z,13.90
2022-10-24T01:02:21.835Z,13.90
2022-10-24T01:06:50.238Z,13.90
2022-10-24T01:11:01.705Z,13.90
2022-10-24T01:15:23.538Z,14.00
2022-10-24T01:19:51.114Z,14.00
2022-10-24T01:24:29.660Z,13.90
2022-10-24T01:28:45.942Z,14.00
2022-10-24T01:32:50.048Z,14.00
2022-10-24T01:37:06.448Z,14.00
2022-10-24T01:41:10.363Z,14.00
2022-10-24T01:45:15.739Z,14.00
2022-10-24T01:49:19.999Z,14.00
2022-10-24T01:53:24.830Z,13.90
2022-10-24T01:57:28.885Z,13.90
2022-10-24T02:01:37.419Z,13.90
2022-10-24T02:05:43.740Z,13.90
2022-10-24T02:09:53.371Z,13.90
2022-10-24T02:14:27.391Z,13.90
2022-10-24T02:18:29.866Z,13.90
2022-10-24T02:23:01.394Z,13.90
2022-10-24T02:27:07.306Z,13.80
2022-10-24T02:31:17.580Z,13.80
2022-10-24T02:35:23.745Z,13.70
2022-10-24T02:39:28.159Z,13.70
2022-10-24T02:43:33.730Z,13.60
2022-10-24T02:47:35.674Z,13.60
2022-10-24T02:51:40.065Z,13.60
2022-10-24T02:55:44.167Z,13.50
2022-10-24T02:59:46.100Z,13.60
2022-10-24T03:03:48.095Z,13.50
2022-10-24T03:07:50.044Z,13.50
2022-10-24T03:11:51.934Z,13.60
2022-10-24T03:15:54.854Z,13.60
2022-10-24T03:19:56.679Z,13.60
2022-10-24T03:24:01.585Z,13.60
2022-10-24T03:28:03.599Z,13.60
2022-10-24T03:32:06.480Z,13.60
2022-10-24T03:36:08.773Z,13.60
2022-10-24T03:40:11.249Z,13.60
2022-10-24T03:44:13.285Z,13.60
2022-10-24T03:48:15.443Z,13.60
2022-10-24T03:52:17.291Z,13.60
2022-10-24T03:56:21.970Z,13.60
2022-10-24T04:00:23.847Z,13.60
2022-10-24T04:04:25.969Z,13.50
2022-10-24T04:08:27.824Z,13.50
2022-10-24T04:12:29.629Z,13.40
2022-10-24T04:16:34.194Z,13.40
2022-10-24T04:20:36.184Z,13.40
2022-10-24T04:24:39.430Z,13.40
2022-10-24T04:28:41.474Z,13.40
2022-10-24T04:32:43.609Z,13.40
2022-10-24T04:36:45.760Z,13.30
2022-10-24T04:40:52.882Z,13.20
2022-10-24T04:44:55.073Z,13.20
2022-10-24T04:48:56.957Z,13.20
2022-10-24T04:52:58.804Z,13.20
2022-10-24T04:57:10.842Z,13.20
2022-10-24T05:01:12.784Z,13.10
2022-10-24T05:05:15.191Z,13.20
2022-10-24T05:09:17.224Z,13.20
2022-10-24T05:13:19.044Z,13.10
2022-10-24T05:17:20.906Z,13.10
2022-10-24T05:21:22.797Z,13.20
2022-10-24T05:25:25.165Z,13.20
2022-10-24T05:29:27.112Z,13.40
2022-10-24T05:33:29.413Z,13.60
2022-10-24T05:41:33.570Z,14.00
2022-10-24T05:45:35.865Z,13.90
2022-10-24T05:49:38.135Z,13.80
2022-10-24T05:53:40.158Z,13.70
2022-10-24T05:57:42.567Z,13.70
2022-10-24T06:01:45.179Z,13.70
2022-10-24T06:05:47.220Z,13.60
2022-10-24T06:09:49.035Z,13.70
2022-10-24T06:13:51.001Z,13.60
2022-10-24T06:17:52.908Z,13.70
2022-10-24T06:21:54.780Z,13.80
2022-10-24T06:25:56.802Z,13.90
2022-10-24T06:29:58.940Z,14.00
2022-10-24T06:34:10.699Z,14.20
2022-10-24T06:38:12.989Z,14.30
2022-10-24T06:42:14.937Z,14.50
2022-10-24T06:46:17.711Z,14.50
2022-10-24T06:50:19.688Z,14.60
2022-10-24T06:55:00.471Z,14.60
2022-10-24T06:59:04.465Z,14.70
2022-10-24T07:03:06.490Z,14.80
2022-10-24T07:07:19.391Z,15.00
2022-10-24T07:11:21.574Z,15.00
2022-10-24T07:15:23.436Z,15.20
2022-10-24T07:19:26.511Z,15.20
2022-10-24T07:23:31.757Z,15.40
2022-10-24T07:27:34.060Z,15.70
2022-10-24T07:31:36.716Z,16.10
2022-10-24T07:35:43.044Z,16.10
2022-10-24T07:39:46.773Z,16.20
2022-10-24T07:44:23.523Z,16.10
2022-10-24T07:48:25.597Z,16.10
2022-10-24T07:52:54.739Z,16.10
2022-10-24T07:57:11.840Z,16.20
2022-10-24T08:13:20.090Z,17.00
2022-10-24T08:17:23.484Z,17.10
2022-10-24T08:21:28.593Z,17.00
2022-10-24T08:25:30.490Z,17.10
2022-10-24T08:29:42.776Z,17.00
2022-10-24T08:33:45.943Z,17.00
2022-10-24T08:37:47.998Z,17.10
2022-10-24T08:42:00.304Z,17.10
2022-10-24T08:46:25.580Z,17.20
2022-10-24T08:50:33.589Z,17.30
2022-10-24T08:54:56.538Z,17.30
2022-10-24T08:58:58.526Z,17.40
2022-10-24T09:03:44.045Z,17.50
2022-10-24T09:07:49.147Z,17.60
2022-10-24T09:12:02.697Z,17.70
2022-10-24T09:16:33.274Z,17.80
2022-10-24T09:20:35.467Z,17.90
2022-10-24T09:24:45.617Z,18.00
2022-10-24T09:28:48.106Z,18.20
2022-10-24T09:32:50.236Z,18.40
2022-10-24T09:37:59.003Z,18.40
2022-10-24T09:42:08.355Z,18.30
2022-10-24T09:52:27.923Z,18.30
2022-10-24T10:07:54.725Z,18.60
2022-10-24T10:12:03.606Z,18.80
2022-10-24T10:16:15.191Z,18.90
2022-10-24T10:20:41.653Z,19.00
2022-10-24T10:24:44.230Z,19.20
2022-10-24T10:29:18.284Z,19.30
2022-10-24T10:33:30.154Z,19.40
2022-10-24T10:37:35.887Z,19.50
2022-10-24T11:21:35.525Z,20.10
2022-10-24T11:25:54.610Z,20.20
2022-10-24T11:30:06.927Z,20.20
2022-10-24T11:34:21.977Z,20.10
2022-10-24T11:38:24.179Z,20.10
2022-10-24T11:43:06.184Z,20.10
2022-10-24T11:47:24.487Z,20.10
2022-10-24T11:51:45.872Z,20.10
2022-10-24T11:56:12.179Z,20.10
2022-10-24T12:00:26.669Z,20.00
2022-10-24T12:05:19.382Z,19.90
2022-10-24T12:09:36.927Z,19.80
2022-10-24T12:13:47.577Z,19.90
2022-10-24T12:24:29.680Z,20.00
2022-10-24T12:47:30.828Z,20.00
2022-10-24T12:56:43.544Z,20.00
2022-10-24T13:01:10.652Z,20.10
2022-10-24T13:05:52.878Z,20.10
2022-10-24T13:10:26.081Z,20.00
2022-10-24T13:14:59.931Z,20.10
2022-10-24T13:19:19.923Z,20.10
2022-10-24T13:23:27.038Z,19.90
2022-10-24T13:27:31.361Z,19.90
2022-10-24T13:31:33.240Z,19.80
2022-10-24T13:35:35.573Z,19.90
2022-10-24T13:39:42.425Z,19.80
2022-10-24T13:43:48.444Z,19.80
2022-10-24T13:48:01.107Z,19.80
2022-10-24T13:52:37.186Z,19.80
2022-10-24T13:56:40.277Z,19.70
2022-10-24T14:00:58.737Z,19.70
2022-10-24T14:06:02.002Z,19.70
2022-10-24T14:10:13.534Z,19.70
2022-10-24T14:14:31.713Z,19.70
2022-10-24T14:18:37.159Z,19.60
2022-10-24T14:22:40.538Z,19.60
2022-10-24T14:26:42.769Z,19.60
2022-10-24T14:31:20.680Z,19.60
2022-10-24T14:36:11.326Z,19.50
2022-10-24T14:40:17.190Z,19.50
2022-10-24T14:44:20.291Z,19.50
2022-10-24T14:48:25.049Z,19.50
2022-10-24T14:57:17.551Z,19.40
2022-10-24T15:01:19.863Z,19.40
2022-10-24T15:05:24.589Z,19.40
2022-10-24T15:09:26.817Z,19.30
2022-10-24T15:13:34.694Z,19.20
2022-10-24T15:17:44.385Z,19.20
2022-10-24T15:21:46.504Z,19.10
2022-10-24T15:26:10.454Z,19.00
2022-10-24T15:30:18.137Z,19.00
2022-10-24T15:34:22.400Z,18.90
2022-10-24T15:38:24.588Z,18.80
2022-10-24T15:43:44.050Z,18.80
2022-10-24T16:31:48.546Z,18.10
2022-10-24T16:45:23.532Z,17.90
2022-10-24T16:49:28.642Z,17.80
2022-10-24T16:55:08.060Z,17.70
2022-10-24T17:42:24.548Z,16.90
2022-10-24T17:46:31.579Z,16.90
2022-10-24T17:51:21.200Z,16.80
2022-10-24T17:55:45.571Z,16.80
2022-10-24T18:20:39.922Z,16.50
2022-10-24T18:24:50.226Z,16.40
2022-10-24T18:52:32.606Z,16.10
2022-10-24T19:20:26.439Z,16.10
2022-10-24T19:32:16.080Z,16.00
2022-10-24T20:00:14.962Z,16.20
2022-10-24T21:10:40.164Z,15.70
2022-10-24T21:14:54.097Z,15.80
2022-10-24T21:19:15.569Z,15.70
2022-10-24T21:23:43.721Z,15.70
2022-10-24T21:27:48.976Z,15.60
2022-10-24T21:31:57.649Z,15.50
2022-10-24T21:36:35.258Z,15.40
2022-10-24T21:40:37.201Z,15.50
2022-10-24T21:45:21.006Z,15.40
2022-10-24T21:49:26.000Z,15.30
2022-10-24T21:53:29.394Z,15.30
2022-10-24T21:57:31.305Z,15.30
2022-10-24T22:01:38.436Z,15.30
2022-10-24T22:05:40.549Z,15.20
2022-10-24T22:09:42.607Z,15.10
2022-10-24T22:13:49.673Z,15.10
2022-10-24T22:17:51.565Z,15.10
2022-10-24T22:21:56.258Z,15.10
2022-10-24T22:26:30.376Z,15.00
2022-10-24T22:31:00.678Z,15.00
2022-10-24T22:35:23.954Z,15.00
2022-10-24T22:39:26.785Z,14.90
2022-10-24T22:43:34.297Z,14.90
2022-10-24T22:48:26.038Z,14.80
2022-10-24T22:52:28.674Z,14.80
2022-10-24T22:56:33.653Z,14.80
2022-10-24T23:00:37.381Z,14.70
2022-10-24T23:04:52.628Z,14.70
2022-10-24T23:19:36.636Z,14.60
2022-10-24T23:23:39.106Z,14.60
2022-10-24T23:27:45.985Z,14.50
2022-10-24T23:31:48.432Z,14.50
2022-10-24T23:36:00.397Z,14.40
2022-10-24T23:40:37.178Z,14.40
2022-10-24T23:44:39.521Z,14.40
2022-10-24T23:49:03.026Z,14.40
2022-10-24T23:53:27.654Z,14.40
2022-10-24T23:57:29.988Z,14.40
